createdAt,value
2022-12-27T00:02:07.083Z,78.4595
2022-12-27T00:07:08.759Z,77.95684
2022-12-27T00:12:10.413Z,78.50416
2022-12-27T00:17:12.077Z,79.91312
2022-12-27T00:22:13.751Z,76.90039
2022-12-27T00:27:15.421Z,79.12075
2022-12-27T00:32:17.105Z,77.97205
2022-12-27T00:37:18.712Z,76.17696
2022-12-27T00:42:20.398Z,76.61458
2022-12-27T00:47:22.075Z,77.31782
2022-12-27T00:52:23.759Z,76.1603
2022-12-27T00:57:25.441Z,76.08555
2022-12-27T01:02:27.087Z,75.54226
2022-12-27T01:07:28.736Z,75.59425
2022-12-27T01:12:30.419Z,75.53266
2022-12-27T01:17:32.068Z,77.6045
2022-12-27T01:22:33.695Z,76.37942
2022-12-27T01:27:35.338Z,76.71776
2022-12-27T01:32:37.007Z,76.50981
2022-12-27T01:37:38.623Z,76.61769
2022-12-27T01:42:40.445Z,73.85544
2022-12-27T01:47:42.067Z,74.98281
2022-12-27T01:52:43.866Z,74.7594
2022-12-27T01:57:45.509Z,76.07475
2022-12-27T02:02:47.460Z,76.37731
2022-12-27T02:07:49.228Z,78.35768
2022-12-27T02:12:50.875Z,76.29537
2022-12-27T02:17:52.524Z,78.90826
2022-12-27T02:22:54.220Z,81.60777
2022-12-27T02:27:55.827Z,77.61667
2022-12-27T02:32:57.486Z,82.29566
2022-12-27T02:37:59.266Z,86.02226
2022-12-27T02:43:01.104Z,81.11415
2022-12-27T02:48:03.447Z,81.39779
2022-12-27T02:53:05.152Z,77.62866
2022-12-27T02:58:06.873Z,76.78394
2022-12-27T03:03:08.552Z,75.77841
2022-12-27T03:08:10.212Z,78.27926
2022-12-27T03:13:11.887Z,79.05857
2022-12-27T03:18:13.545Z,83.40924
2022-12-27T03:23:15.232Z,81.09287
2022-12-27T03:28:16.856Z,80.15212
2022-12-27T03:33:18.496Z,78.64581
2022-12-27T03:38:20.120Z,77.90732
2022-12-27T03:43:21.914Z,77.20091
2022-12-27T03:48:23.533Z,79.82247
2022-12-27T03:53:25.209Z,78.85467
2022-12-27T03:58:26.868Z,76.17956
2022-12-27T04:03:28.479Z,76.09226
2022-12-27T04:08:30.094Z,76.46861
2022-12-27T04:13:31.807Z,77.85682
2022-12-27T04:18:33.425Z,75.5088
2022-12-27T04:23:35.091Z,76.45481
2022-12-27T04:28:36.815Z,76.4604
2022-12-27T04:33:38.452Z,76.29155
2022-12-27T04:38:40.150Z,77.15125
2022-12-27T04:43:42.031Z,74.16929
2022-12-27T04:48:43.691Z,76.20316
2022-12-27T04:53:45.351Z,76.55203
2022-12-27T04:58:47.303Z,77.47369
2022-12-27T05:03:48.969Z,77.04221
2022-12-27T05:08:50.664Z,78.42542
2022-12-27T05:13:52.298Z,78.58006
2022-12-27T05:18:53.949Z,77.85255
2022-12-27T05:23:58.880Z,78.26989
2022-12-27T05:29:03.423Z,76.04403
2022-12-27T05:34:05.198Z,74.89804
2022-12-27T05:39:06.806Z,76.48084
2022-12-27T05:44:08.482Z,82.08667
2022-12-27T05:49:10.147Z,83.0146
2022-12-27T05:54:11.788Z,82.60147
2022-12-27T05:59:13.423Z,84.33576
2022-12-27T06:04:15.112Z,79.80284
2022-12-27T06:09:16.734Z,79.15057
2022-12-27T06:14:18.454Z,83.45199
2022-12-27T06:19:20.069Z,80.71098
2022-12-27T06:24:21.694Z,81.43199
2022-12-27T06:29:23.328Z,81.42431
2022-12-27T06:34:25.129Z,80.86643
2022-12-27T06:39:26.920Z,84.28499
2022-12-27T06:44:28.520Z,85.16229
2022-12-27T06:49:30.183Z,81.15006
2022-12-27T06:54:31.925Z,81.28526
2022-12-27T06:59:33.590Z,78.08657
2022-12-27T07:04:35.253Z,77.48159
2022-12-27T07:09:36.955Z,78.63923
2022-12-27T07:14:38.796Z,78.04784
2022-12-27T07:19:40.619Z,80.17604
2022-12-27T07:24:42.208Z,81.79742
2022-12-27T07:29:45.720Z,81.3853
2022-12-27T07:34:47.803Z,78.2846
2022-12-27T07:39:49.440Z,78.78641
2022-12-27T07:44:51.047Z,79.30924
2022-12-27T07:49:52.657Z,79.14505
2022-12-27T07:54:54.292Z,77.54721
2022-12-27T07:59:55.957Z,76.88255
2022-12-27T08:04:57.572Z,80.65812
2022-12-27T08:09:59.172Z,83.72082
2022-12-27T08:15:00.837Z,80.58044
2022-12-27T08:20:02.496Z,80.33619
2022-12-27T08:25:04.139Z,77.19879
2022-12-27T08:30:05.891Z,78.91641
2022-12-27T08:35:41.954Z,76.45449
2022-12-27T08:40:52.374Z,76.39337
2022-12-27T08:45:54.049Z,80.8614
2022-12-27T08:50:55.798Z,83.96745
2022-12-27T08:55:57.569Z,81.12724
2022-12-27T09:00:59.276Z,79.10633
2022-12-27T09:06:00.961Z,79.53669
2022-12-27T09:11:02.721Z,79.52149
2022-12-27T09:16:04.405Z,76.5311
2022-12-27T09:21:06.130Z,75.04221
2022-12-27T09:26:07.899Z,74.93403
2022-12-27T09:31:09.562Z,77.04744
2022-12-27T09:36:11.256Z,75.42425
2022-12-27T09:41:16.534Z,77.49846
2022-12-27T09:46:21.699Z,79.55446
2022-12-27T09:51:23.370Z,78.86478
2022-12-27T09:56:35.693Z,81.87227
2022-12-27T10:01:56.143Z,78.63441
2022-12-27T10:06:57.805Z,80.84609
2022-12-27T10:11:59.454Z,77.6914
2022-12-27T10:17:01.077Z,79.98908
2022-12-27T10:22:02.800Z,81.36837
2022-12-27T10:27:05.659Z,84.03995
2022-12-27T10:32:07.237Z,80.64768
2022-12-27T10:37:08.950Z,78.26855
2022-12-27T10:42:10.637Z,76.5003
2022-12-27T10:47:12.383Z,76.87076
2022-12-27T10:52:14.199Z,81.27335
2022-12-27T10:57:15.857Z,78.81578
2022-12-27T11:02:17.691Z,78.90275
2022-12-27T11:07:19.513Z,77.00176
2022-12-27T11:12:21.190Z,80.52141
2022-12-27T11:17:22.877Z,83.57718
2022-12-27T11:22:24.477Z,77.72418
2022-12-27T11:27:26.121Z,76.52377
2022-12-27T11:32:27.919Z,76.90332
2022-12-27T11:37:29.566Z,76.80674
2022-12-27T11:42:31.224Z,79.93258
2022-12-27T11:47:32.864Z,80.45163
2022-12-27T11:52:34.531Z,82.37895
2022-12-27T11:57:36.317Z,83.44212
2022-12-27T12:02:38.024Z,79.59714
2022-12-27T12:07:39.721Z,79.54043
2022-12-27T12:12:41.389Z,78.88984
2022-12-27T12:17:43.001Z,79.61471
2022-12-27T12:22:44.662Z,81.75664
2022-12-27T12:27:46.319Z,81.11751
2022-12-27T12:32:47.961Z,78.59877
2022-12-27T12:37:49.631Z,76.94137
2022-12-27T12:42:51.218Z,79.75578
2022-12-27T12:47:52.892Z,79.48718
2022-12-27T12:52:54.555Z,76.28909
2022-12-27T12:57:56.336Z,75.91544
2022-12-27T13:02:58.094Z,75.77992
2022-12-27T13:07:59.809Z,73.32714
2022-12-27T13:13:01.540Z,75.03441
2022-12-27T13:18:03.190Z,78.81516
2022-12-27T13:23:04.825Z,81.39808
2022-12-27T13:28:06.475Z,85.63221
2022-12-27T13:33:08.121Z,86.77293
2022-12-27T13:38:09.728Z,78.7243
2022-12-27T13:43:11.362Z,75.94898
2022-12-27T13:48:12.967Z,77.81599
2022-12-27T13:53:14.605Z,77.13216
2022-12-27T13:58:16.253Z,77.65943
2022-12-27T14:03:18.022Z,78.83699
2022-12-27T14:08:19.735Z,77.08964
2022-12-27T14:13:21.388Z,81.32887
2022-12-27T14:18:23.090Z,81.59802
2022-12-27T14:23:24.746Z,83.14287
2022-12-27T14:28:26.384Z,86.37896
2022-12-27T14:33:28.111Z,80.98256
2022-12-27T14:38:29.795Z,77.52415
2022-12-27T14:43:31.440Z,79.50435
2022-12-27T14:48:33.064Z,76.60747
2022-12-27T14:53:34.767Z,76.41838
2022-12-27T14:58:36.518Z,76.08721
2022-12-27T15:03:41.154Z,78.53615
2022-12-27T15:08:43.540Z,79.05381
2022-12-27T15:13:45.246Z,75.37859
2022-12-27T15:18:46.910Z,77.04688
2022-12-27T15:23:48.570Z,76.23091
2022-12-27T15:28:50.242Z,76.90074
2022-12-27T15:33:52.012Z,76.03478
2022-12-27T15:38:54.751Z,75.57037
2022-12-27T15:43:56.632Z,76.07186
2022-12-27T15:48:58.474Z,78.52148
2022-12-27T15:54:00.121Z,81.09324
2022-12-27T15:59:01.777Z,82.89196
2022-12-27T16:04:03.439Z,79.68888
2022-12-27T16:09:05.053Z,75.55361
2022-12-27T16:14:06.672Z,75.93497
2022-12-27T16:19:08.281Z,82.24154
2022-12-27T16:24:09.979Z,82.98361
2022-12-27T16:29:11.610Z,78.66171
2022-12-27T16:34:13.214Z,76.1264
2022-12-27T16:39:14.833Z,75.66234
2022-12-27T16:44:16.520Z,75.44242
2022-12-27T16:49:18.197Z,75.53956
2022-12-27T16:54:19.932Z,76.80213
2022-12-27T16:59:21.610Z,78.29806
2022-12-27T17:04:23.277Z,79.35217
2022-12-27T17:09:26.209Z,79.24487
2022-12-27T17:14:29.465Z,80.20275
2022-12-27T17:19:31.128Z,76.73115
2022-12-27T17:24:32.764Z,75.51489
2022-12-27T17:29:34.617Z,75.08526
2022-12-27T17:34:36.483Z,75.4824
2022-12-27T17:39:38.104Z,74.32714
2022-12-27T17:44:39.778Z,73.76023
2022-12-27T17:49:41.416Z,75.63636
2022-12-27T17:54:43.035Z,75.98317
2022-12-27T17:59:44.624Z,79.71507
2022-12-27T18:04:46.274Z,78.93228
2022-12-27T18:09:47.912Z,78.61304
2022-12-27T18:14:49.526Z,75.74124
2022-12-27T18:19:51.118Z,74.95109
2022-12-27T18:24:53.056Z,75.04423
2022-12-27T18:29:54.749Z,75.74445
2022-12-27T18:34:56.432Z,77.10971
2022-12-27T18:39:58.137Z,75.6869
2022-12-27T18:44:59.856Z,77.46431
2022-12-27T18:50:01.537Z,75.57893
2022-12-27T18:55:03.238Z,77.17816
2022-12-27T19:00:04.927Z,76.34281
2022-12-27T19:05:06.645Z,78.72317
2022-12-27T19:10:08.489Z,78.22034
2022-12-27T19:15:10.409Z,76.77504
2022-12-27T19:20:12.059Z,75.54764
2022-12-27T19:25:13.705Z,72.51842
2022-12-27T19:30:15.381Z,74.11967
2022-12-27T19:35:16.982Z,71.80637
2022-12-27T19:40:18.674Z,73.85391
2022-12-27T19:45:20.330Z,74.30227
2022-12-27T19:50:21.962Z,73.08786
2022-12-27T19:55:23.760Z,73.64106
2022-12-27T20:00:25.486Z,73.65737
2022-12-27T20:06:13.587Z,74.32227
2022-12-27T20:11:16.821Z,77.68761
2022-12-27T20:16:18.672Z,78.95846
2022-12-27T20:21:20.378Z,77.12866
2022-12-27T20:26:22.068Z,75.07042
2022-12-27T20:31:23.757Z,75.61426
2022-12-27T20:36:25.427Z,74.48113
2022-12-27T20:41:27.089Z,76.53972
2022-12-27T20:46:28.691Z,75.9523
2022-12-27T20:51:30.324Z,77.06009
2022-12-27T20:56:31.977Z,76.10453
2022-12-27T21:01:33.720Z,74.23989
2022-12-27T21:06:35.691Z,76.60529
2022-12-27T21:11:37.408Z,77.50997
2022-12-27T21:16:39.108Z,78.88586
2022-12-27T21:21:40.792Z,75.07199
2022-12-27T21:26:42.503Z,73.97047
2022-12-27T21:31:44.141Z,77.29736
2022-12-27T21:36:45.981Z,76.14669
2022-12-27T21:41:47.644Z,76.70215
2022-12-27T21:46:49.421Z,76.01975
2022-12-27T21:51:51.245Z,77.62864
2022-12-27T21:56:52.879Z,78.66515
2022-12-27T22:01:54.713Z,78.68339
2022-12-27T22:06:56.445Z,74.35021
2022-12-27T22:11:58.130Z,74.01685
2022-12-27T22:16:59.929Z,75.10519
2022-12-27T22:22:01.567Z,77.96698
2022-12-27T22:27:03.382Z,79.16226
2022-12-27T22:32:05.009Z,77.0755
2022-12-27T22:37:06.704Z,82.10147
2022-12-27T22:42:08.251Z,80.44415
2022-12-27T22:47:27.178Z,79.22162
2022-12-27T22:52:29.726Z,80.50395
2022-12-27T22:57:31.459Z,79.36181
2022-12-27T23:02:33.253Z,77.77987
2022-12-27T23:08:05.859Z,76.00608
2022-12-27T23:13:08.593Z,79.05654
2022-12-27T23:18:10.261Z,79.38133
2022-12-27T23:23:12.031Z,81.49931
2022-12-27T23:28:13.735Z,79.25523
2022-12-27T23:33:15.500Z,76.17991
2022-12-27T23:38:17.361Z,76.81019
2022-12-27T23:43:50.951Z,80.27727
2022-12-27T23:48:53.687Z,83.69122
2022-12-27T23:53:55.297Z,79.44068
2022-12-27T23:58:57.016Z,77.93998
